DAL2110 KDCA-KPHL
Flight info
| Callsign | DAL2110 |
|---|---|
| Flight time | 0h 26m |
| Altitude | 17000 |
| Route | DOCTR5 DQO DCT |
| Aircraft | A320/M-SDE3FGHIRWY/LB1 |
Departure
| Time | 2026-05-05 03:15 |
|---|---|
| Airport | Ronald Reagan Washington National Airport (KDCA) |
Arrival
| Time | 2026-05-05 03:41 |
|---|---|
| Airport | Philadelphia International Airport (KPHL) |
| Time | Latitude | Longitude | Altitude | Speed | Heading |
|---|---|---|---|---|---|
| 2026-05-05 02:56 | 38.85561 | -77.04218 | 24 ft | 0 kts | 326° |
| 2026-05-05 03:07 | 38.85552 | -77.04211 | 24 ft | 2 kts | 326° |
| 2026-05-05 03:07 | 38.85539 | -77.04200 | 25 ft | 2 kts | 326° |
| 2026-05-05 03:07 | 38.85527 | -77.04189 | 25 ft | 2 kts | 326° |
| 2026-05-05 03:07 | 38.85515 | -77.04188 | 25 ft | 2 kts | 30° |
| 2026-05-05 03:08 | 38.85508 | -77.04196 | 25 ft | 0 kts | 68° |
| 2026-05-05 03:08 | 38.85506 | -77.04205 | 25 ft | 1 kts | 73° |
| 2026-05-05 03:08 | 38.85506 | -77.04206 | 25 ft | 0 kts | 73° |
| 2026-05-05 03:11 | 38.85508 | -77.04197 | 25 ft | 7 kts | 73° |
| 2026-05-05 03:11 | 38.85527 | -77.04117 | 23 ft | 11 kts | 72° |
| 2026-05-05 03:11 | 38.85555 | -77.04010 | 21 ft | 14 kts | 69° |
| 2026-05-05 03:11 | 38.85647 | -77.03964 | 18 ft | 16 kts | 358° |
| 2026-05-05 03:12 | 38.85763 | -77.03977 | 19 ft | 17 kts | 354° |
| 2026-05-05 03:12 | 38.85886 | -77.03988 | 17 ft | 18 kts | 0° |
| 2026-05-05 03:12 | 38.85981 | -77.03964 | 15 ft | 0 kts | 17° |
| 2026-05-05 03:13 | 38.85986 | -77.03961 | 15 ft | 6 kts | 17° |
| 2026-05-05 03:13 | 38.86078 | -77.03886 | 14 ft | 8 kts | 107° |
| 2026-05-05 03:14 | 38.86057 | -77.03875 | 15 ft | 10 kts | 169° |
| 2026-05-05 03:14 | 38.86035 | -77.03870 | 15 ft | 0 kts | 173° |
| 2026-05-05 03:14 | 38.85803 | -77.03840 | 16 ft | 77 kts | 175° |
| 2026-05-05 03:14 | 38.85001 | -77.03764 | 20 ft | 150 kts | 173° |
| 2026-05-05 03:15 | 38.84950 | -77.03758 | 22 ft | 153 kts | 172° |
| 2026-05-05 03:15 | 38.84333 | -77.03688 | 204 ft | 169 kts | 172° |
| 2026-05-05 03:15 | 38.83204 | -77.03552 | 1048 ft | 165 kts | 169° |
| 2026-05-05 03:15 | 38.82094 | -77.03339 | 1893 ft | 165 kts | 167° |
| 2026-05-05 03:16 | 38.80915 | -77.03084 | 2533 ft | 180 kts | 167° |
| 2026-05-05 03:16 | 38.79642 | -77.02801 | 3145 ft | 197 kts | 167° |
| 2026-05-05 03:16 | 38.78236 | -77.02487 | 3769 ft | 215 kts | 167° |
| 2026-05-05 03:16 | 38.76751 | -77.01901 | 4275 ft | 236 kts | 145° |
| 2026-05-05 03:17 | 38.75595 | -77.00424 | 4790 ft | 240 kts | 116° |
| 2026-05-05 03:17 | 38.75147 | -76.98334 | 5146 ft | 252 kts | 91° |
| 2026-05-05 03:17 | 38.75136 | -76.96030 | 5699 ft | 264 kts | 88° |
| 2026-05-05 03:17 | 38.75217 | -76.93729 | 6863 ft | 261 kts | 78° |
| 2026-05-05 03:18 | 38.75887 | -76.91627 | 7964 ft | 261 kts | 55° |
| 2026-05-05 03:18 | 38.77224 | -76.90044 | 8963 ft | 267 kts | 35° |
| 2026-05-05 03:18 | 38.78796 | -76.88813 | 9917 ft | 271 kts | 33° |
| 2026-05-05 03:18 | 38.80450 | -76.87564 | 10743 ft | 279 kts | 33° |
| 2026-05-05 03:19 | 38.84002 | -76.84829 | 11739 ft | 315 kts | 36° |
| 2026-05-05 03:19 | 38.85737 | -76.83039 | 12150 ft | 331 kts | 47° |
| 2026-05-05 03:19 | 38.87186 | -76.80661 | 12645 ft | 343 kts | 60° |
| 2026-05-05 03:20 | 38.88298 | -76.77934 | 13450 ft | 346 kts | 65° |
| 2026-05-05 03:20 | 38.89341 | -76.75144 | 14284 ft | 348 kts | 65° |
| 2026-05-05 03:20 | 38.90382 | -76.72333 | 15061 ft | 352 kts | 65° |
| 2026-05-05 03:20 | 38.91434 | -76.69504 | 15818 ft | 355 kts | 65° |
| 2026-05-05 03:21 | 38.92504 | -76.66638 | 16495 ft | 358 kts | 65° |
| 2026-05-05 03:21 | 38.93590 | -76.63733 | 16892 ft | 360 kts | 65° |
| 2026-05-05 03:21 | 38.94645 | -76.60788 | 16995 ft | 360 kts | 68° |
| 2026-05-05 03:21 | 38.95627 | -76.57819 | 16997 ft | 359 kts | 68° |
| 2026-05-05 03:22 | 38.96603 | -76.54838 | 16999 ft | 359 kts | 68° |
| 2026-05-05 03:22 | 38.97560 | -76.51905 | 16999 ft | 359 kts | 68° |
| 2026-05-05 03:22 | 38.98532 | -76.48923 | 17000 ft | 359 kts | 68° |
| 2026-05-05 03:22 | 38.99497 | -76.45970 | 16999 ft | 359 kts | 67° |
| 2026-05-05 03:23 | 39.00647 | -76.43101 | 16999 ft | 361 kts | 60° |
| 2026-05-05 03:23 | 39.02100 | -76.40427 | 16999 ft | 362 kts | 53° |
| 2026-05-05 03:23 | 39.03794 | -76.38056 | 17000 ft | 364 kts | 46° |
| 2026-05-05 03:23 | 39.05633 | -76.35813 | 17000 ft | 365 kts | 45° |
| 2026-05-05 03:24 | 39.07502 | -76.33584 | 17001 ft | 365 kts | 46° |
| 2026-05-05 03:24 | 39.09358 | -76.31376 | 17001 ft | 365 kts | 46° |
| 2026-05-05 03:24 | 39.11216 | -76.29162 | 17001 ft | 365 kts | 46° |
| 2026-05-05 03:24 | 39.13097 | -76.26917 | 17000 ft | 365 kts | 46° |
| 2026-05-05 03:25 | 39.14939 | -76.24713 | 17000 ft | 365 kts | 46° |
| 2026-05-05 03:25 | 39.16798 | -76.22488 | 17000 ft | 365 kts | 46° |
| 2026-05-05 03:25 | 39.18648 | -76.20270 | 16959 ft | 365 kts | 46° |
| 2026-05-05 03:25 | 39.20513 | -76.18033 | 16662 ft | 363 kts | 46° |
| 2026-05-05 03:26 | 39.22361 | -76.15814 | 16288 ft | 361 kts | 46° |
| 2026-05-05 03:26 | 39.24180 | -76.13628 | 15818 ft | 358 kts | 46° |
| 2026-05-05 03:26 | 39.26012 | -76.11425 | 15305 ft | 355 kts | 45° |
| 2026-05-05 03:26 | 39.27800 | -76.09273 | 14784 ft | 352 kts | 45° |
| 2026-05-05 03:27 | 39.29584 | -76.07124 | 14257 ft | 350 kts | 45° |
| 2026-05-05 03:27 | 39.31348 | -76.04997 | 13729 ft | 347 kts | 45° |
| 2026-05-05 03:27 | 39.33098 | -76.02888 | 13204 ft | 345 kts | 45° |
| 2026-05-05 03:27 | 39.34850 | -76.00771 | 12675 ft | 342 kts | 45° |
| 2026-05-05 03:28 | 39.36576 | -75.98687 | 12153 ft | 340 kts | 45° |
| 2026-05-05 03:28 | 39.38288 | -75.96618 | 11634 ft | 338 kts | 45° |
| 2026-05-05 03:28 | 39.40006 | -75.94540 | 11196 ft | 332 kts | 45° |
| 2026-05-05 03:28 | 39.41666 | -75.92532 | 10901 ft | 322 kts | 45° |
| 2026-05-05 03:29 | 39.43264 | -75.90599 | 10716 ft | 309 kts | 45° |
| 2026-05-05 03:29 | 39.44810 | -75.88728 | 10525 ft | 297 kts | 45° |
| 2026-05-05 03:29 | 39.46277 | -75.86950 | 10351 ft | 286 kts | 45° |
| 2026-05-05 03:29 | 39.47707 | -75.85216 | 10190 ft | 275 kts | 45° |
| 2026-05-05 03:30 | 39.49085 | -75.83543 | 10049 ft | 264 kts | 45° |
| 2026-05-05 03:30 | 39.50398 | -75.81947 | 9744 ft | 262 kts | 45° |
| 2026-05-05 03:30 | 39.51728 | -75.80328 | 9406 ft | 260 kts | 45° |
| 2026-05-05 03:30 | 39.53037 | -75.78733 | 9084 ft | 258 kts | 45° |
| 2026-05-05 03:31 | 39.54342 | -75.77144 | 8768 ft | 256 kts | 45° |
| 2026-05-05 03:31 | 39.55628 | -75.75578 | 8460 ft | 254 kts | 45° |
| 2026-05-05 03:31 | 39.56923 | -75.74000 | 8151 ft | 252 kts | 45° |
| 2026-05-05 03:31 | 39.58180 | -75.72469 | 7852 ft | 250 kts | 45° |
| 2026-05-05 03:32 | 39.59455 | -75.70918 | 7549 ft | 250 kts | 43° |
| 2026-05-05 03:32 | 39.60911 | -75.69610 | 7251 ft | 260 kts | 31° |
| 2026-05-05 03:32 | 39.62519 | -75.68514 | 6950 ft | 261 kts | 29° |
| 2026-05-05 03:32 | 39.64098 | -75.67409 | 6653 ft | 260 kts | 31° |
| 2026-05-05 03:33 | 39.65671 | -75.66268 | 6352 ft | 258 kts | 31° |
| 2026-05-05 03:33 | 39.67241 | -75.65117 | 6050 ft | 257 kts | 31° |
| 2026-05-05 03:33 | 39.68751 | -75.63891 | 5750 ft | 256 kts | 34° |
| 2026-05-05 03:33 | 39.70253 | -75.62616 | 5446 ft | 255 kts | 33° |
| 2026-05-05 03:34 | 39.71782 | -75.61443 | 5146 ft | 255 kts | 31° |
| 2026-05-05 03:34 | 39.73309 | -75.60339 | 4849 ft | 254 kts | 30° |
| 2026-05-05 03:34 | 39.74865 | -75.59225 | 4546 ft | 253 kts | 30° |
| 2026-05-05 03:34 | 39.76385 | -75.58134 | 4246 ft | 249 kts | 30° |
| 2026-05-05 03:35 | 39.77907 | -75.57121 | 4010 ft | 243 kts | 24° |
| 2026-05-05 03:35 | 39.79436 | -75.56330 | 3995 ft | 228 kts | 26° |
| 2026-05-05 03:35 | 39.80649 | -75.55172 | 3966 ft | 211 kts | 53° |
| 2026-05-05 03:35 | 39.81292 | -75.53487 | 3755 ft | 207 kts | 71° |
| 2026-05-05 03:36 | 39.81697 | -75.51708 | 3542 ft | 203 kts | 74° |
| 2026-05-05 03:36 | 39.82042 | -75.49985 | 3333 ft | 189 kts | 75° |
| 2026-05-05 03:36 | 39.82361 | -75.48350 | 3154 ft | 183 kts | 75° |
| 2026-05-05 03:36 | 39.82674 | -75.46742 | 3073 ft | 183 kts | 75° |
| 2026-05-05 03:37 | 39.82986 | -75.45154 | 2999 ft | 183 kts | 74° |
| 2026-05-05 03:37 | 39.83302 | -75.43549 | 2774 ft | 182 kts | 74° |
| 2026-05-05 03:37 | 39.83615 | -75.41962 | 2523 ft | 175 kts | 74° |
| 2026-05-05 03:37 | 39.83911 | -75.40462 | 2322 ft | 164 kts | 74° |
| 2026-05-05 03:38 | 39.84184 | -75.39085 | 2142 ft | 154 kts | 74° |
| 2026-05-05 03:38 | 39.84449 | -75.37747 | 1910 ft | 148 kts | 74° |
| 2026-05-05 03:38 | 39.84698 | -75.36493 | 1690 ft | 139 kts | 74° |
| 2026-05-05 03:38 | 39.84929 | -75.35323 | 1531 ft | 131 kts | 74° |
| 2026-05-05 03:39 | 39.85158 | -75.34174 | 1355 ft | 130 kts | 74° |
| 2026-05-05 03:39 | 39.85387 | -75.33021 | 1183 ft | 130 kts | 74° |
| 2026-05-05 03:39 | 39.85615 | -75.31879 | 1010 ft | 130 kts | 74° |
| 2026-05-05 03:39 | 39.85838 | -75.30753 | 844 ft | 129 kts | 74° |
| 2026-05-05 03:40 | 39.86065 | -75.29606 | 672 ft | 130 kts | 74° |
| 2026-05-05 03:40 | 39.86294 | -75.28456 | 497 ft | 130 kts | 74° |
| 2026-05-05 03:40 | 39.86519 | -75.27322 | 323 ft | 129 kts | 74° |
| 2026-05-05 03:40 | 39.86742 | -75.26202 | 148 ft | 125 kts | 74° |
| 2026-05-05 03:41 | 39.86955 | -75.25133 | 19 ft | 116 kts | 75° |
| 2026-05-05 03:41 | 39.87089 | -75.24464 | 13 ft | 53 kts | 78° |
| 2026-05-05 03:41 | 39.87164 | -75.24168 | 12 ft | 14 kts | 47° |
| 2026-05-05 03:41 | 39.87225 | -75.24149 | 12 ft | 5 kts | 343° |
| 2026-05-05 03:42 | 39.87254 | -75.24164 | 12 ft | 3 kts | 338° |
| 2026-05-05 03:42 | 39.87275 | -75.24175 | 12 ft | 5 kts | 335° |
| 2026-05-05 03:42 | 39.87322 | -75.24210 | 12 ft | 9 kts | 332° |
| 2026-05-05 03:42 | 39.87391 | -75.24234 | 12 ft | 10 kts | 349° |
| 2026-05-05 03:43 | 39.87455 | -75.24224 | 12 ft | 9 kts | 40° |
| 2026-05-05 03:43 | 39.87469 | -75.24194 | 12 ft | 0 kts | 72° |